createdAt,value
2022-12-08T00:00:55.519Z,19
2022-12-08T00:01:56.795Z,19
2022-12-08T00:02:58.738Z,20
2022-12-08T00:04:00.642Z,20
2022-12-08T00:05:03.032Z,19
2022-12-08T00:06:04.878Z,19
2022-12-08T00:07:06.619Z,19
2022-12-08T00:08:08.687Z,19
2022-12-08T00:09:11.039Z,18
2022-12-08T00:10:40.146Z,17
2022-12-08T00:11:14.579Z,18
2022-12-08T00:12:16.563Z,17
2022-12-08T00:13:17.559Z,17
2022-12-08T00:14:19.538Z,17
2022-12-08T00:15:20.491Z,17
2022-12-08T00:16:21.706Z,17
2022-12-08T00:17:23.500Z,17
2022-12-08T00:18:24.537Z,17
2022-12-08T00:19:25.498Z,17
2022-12-08T00:20:26.495Z,18
2022-12-08T00:21:27.538Z,17
2022-12-08T00:22:28.519Z,18
2022-12-08T00:23:29.618Z,17
2022-12-08T00:24:31.519Z,17
2022-12-08T00:25:32.698Z,17
2022-12-08T00:26:34.479Z,17
2022-12-08T00:27:35.500Z,17
2022-12-08T00:28:36.620Z,17
2022-12-08T00:29:38.576Z,16
2022-12-08T00:30:39.519Z,16
2022-12-08T00:31:41.612Z,16
2022-12-08T00:32:43.559Z,17
2022-12-08T00:33:45.699Z,17
2022-12-08T00:34:47.538Z,17
2022-12-08T00:35:48.614Z,17
2022-12-08T00:36:50.467Z,16
2022-12-08T00:37:53.111Z,16
2022-12-08T00:38:53.619Z,17
2022-12-08T00:39:55.542Z,17
2022-12-08T00:40:56.622Z,17
2022-12-08T00:41:57.518Z,17
2022-12-08T00:42:58.625Z,16
2022-12-08T00:44:00.666Z,17
2022-12-08T00:45:02.678Z,17
2022-12-08T00:46:04.708Z,17
2022-12-08T00:47:06.638Z,16
2022-12-08T00:48:08.599Z,16
2022-12-08T00:49:10.820Z,16
2022-12-08T00:50:12.619Z,16
2022-12-08T00:51:14.603Z,17
2022-12-08T00:52:16.478Z,17
2022-12-08T00:53:17.540Z,16
2022-12-08T00:54:18.585Z,17
2022-12-08T00:55:20.585Z,17
2022-12-08T00:56:22.502Z,17
2022-12-08T00:57:23.618Z,17
2022-12-08T00:58:25.578Z,17
2022-12-08T00:59:27.837Z,18
2022-12-08T01:00:29.717Z,16
2022-12-08T01:01:31.552Z,16
2022-12-08T01:02:32.518Z,17
2022-12-08T01:03:33.535Z,17
2022-12-08T01:04:34.521Z,17
2022-12-08T01:05:35.578Z,17
2022-12-08T01:06:36.602Z,17
2022-12-08T01:07:37.593Z,17
2022-12-08T01:08:38.648Z,17
2022-12-08T01:09:40.598Z,17
2022-12-08T01:10:42.758Z,17
2022-12-08T01:11:44.651Z,17
2022-12-08T01:12:46.658Z,17
2022-12-08T01:13:48.640Z,18
2022-12-08T01:14:50.557Z,18
2022-12-08T01:15:51.615Z,18
2022-12-08T01:16:53.672Z,18
2022-12-08T01:17:55.658Z,18
2022-12-08T01:18:58.558Z,16
2022-12-08T01:20:00.605Z,16
2022-12-08T01:21:01.569Z,16
2022-12-08T01:22:02.607Z,16
2022-12-08T01:23:03.605Z,16
2022-12-08T01:24:04.806Z,16
2022-12-08T01:25:06.657Z,16
2022-12-08T01:26:09.141Z,16
2022-12-08T01:27:10.659Z,17
2022-12-08T01:28:12.677Z,16
2022-12-08T01:29:14.646Z,16
2022-12-08T01:30:16.639Z,16
2022-12-08T01:31:18.770Z,16
2022-12-08T01:32:20.598Z,17
2022-12-08T01:33:22.659Z,19
2022-12-08T01:34:24.638Z,20
2022-12-08T01:35:26.641Z,22
2022-12-08T01:36:28.660Z,20
2022-12-08T01:37:30.694Z,20
2022-12-08T01:38:32.598Z,20
2022-12-08T01:39:34.580Z,19
2022-12-08T01:40:36.640Z,19
2022-12-08T01:41:38.718Z,20
2022-12-08T01:42:40.697Z,20
2022-12-08T01:43:42.619Z,20
2022-12-08T01:44:44.827Z,19
2022-12-08T01:45:47.066Z,19
2022-12-08T01:46:48.579Z,19
2022-12-08T01:47:50.623Z,19
2022-12-08T01:48:51.517Z,18
2022-12-08T01:49:52.798Z,19
2022-12-08T01:50:54.599Z,18
2022-12-08T01:51:56.558Z,19
2022-12-08T01:52:58.241Z,18
2022-12-08T01:53:59.560Z,20
2022-12-08T01:55:00.626Z,19
2022-12-08T01:56:02.617Z,19
2022-12-08T01:57:04.562Z,18
2022-12-08T01:58:05.525Z,18
2022-12-08T01:59:06.509Z,20
2022-12-08T02:00:07.928Z,19
2022-12-08T02:01:09.627Z,18
2022-12-08T02:02:10.638Z,18
2022-12-08T02:03:11.687Z,17
2022-12-08T02:07:12.759Z,17
2022-12-08T02:08:14.669Z,17
2022-12-08T02:09:15.556Z,16
2022-12-08T02:10:16.524Z,17
2022-12-08T02:11:17.580Z,16
2022-12-08T02:12:18.556Z,17
2022-12-08T02:13:19.595Z,16
2022-12-08T02:14:20.556Z,16
2022-12-08T02:15:21.599Z,16
2022-12-08T02:16:22.589Z,16
2022-12-08T02:17:23.540Z,16
2022-12-08T02:18:24.587Z,16
2022-12-08T02:19:32.752Z,16
2022-12-08T02:20:27.617Z,16
2022-12-08T02:21:28.656Z,15
2022-12-08T02:22:30.897Z,15
2022-12-08T02:23:32.990Z,16
2022-12-08T02:24:34.978Z,16
2022-12-08T02:25:36.601Z,16
2022-12-08T02:26:38.713Z,15
2022-12-08T02:27:40.696Z,15
2022-12-08T02:28:42.636Z,16
2022-12-08T02:29:44.624Z,15
2022-12-08T02:30:47.137Z,15
2022-12-08T02:31:49.157Z,15
2022-12-08T02:32:50.636Z,15
2022-12-08T02:33:52.637Z,16
2022-12-08T02:34:54.556Z,16
2022-12-08T02:35:55.618Z,15
2022-12-08T02:36:56.636Z,15
2022-12-08T02:37:58.738Z,15
2022-12-08T02:39:01.105Z,15
2022-12-08T02:40:03.104Z,15
2022-12-08T02:41:03.576Z,15
2022-12-08T02:42:04.716Z,14
2022-12-08T02:43:06.670Z,15
2022-12-08T02:44:08.678Z,15
2022-12-08T02:45:11.396Z,15
2022-12-08T02:46:12.676Z,15
2022-12-08T02:47:14.756Z,15
2022-12-08T02:48:16.698Z,13
2022-12-08T02:49:18.617Z,13
2022-12-08T02:50:19.641Z,13
2022-12-08T02:51:20.605Z,14
2022-12-08T02:52:21.607Z,13
2022-12-08T02:53:23.549Z,13
2022-12-08T02:54:24.845Z,13
2022-12-08T02:55:26.999Z,14
2022-12-08T02:56:28.637Z,14
2022-12-08T02:57:30.595Z,15
2022-12-08T02:58:31.637Z,14
2022-12-08T02:59:33.717Z,14
2022-12-08T03:00:35.656Z,14
2022-12-08T03:01:37.778Z,14
2022-12-08T03:02:39.754Z,15
2022-12-08T03:03:41.676Z,15
2022-12-08T03:04:43.695Z,14
2022-12-08T03:05:45.657Z,14
2022-12-08T03:06:47.617Z,14
2022-12-08T03:07:48.695Z,13
2022-12-08T03:08:55.925Z,14
2022-12-08T03:09:57.821Z,14
2022-12-08T03:10:59.837Z,14
2022-12-08T03:12:01.737Z,14
2022-12-08T03:13:03.679Z,14
2022-12-08T03:14:05.677Z,14
2022-12-08T03:15:07.738Z,14
2022-12-08T03:16:09.683Z,14
2022-12-08T03:17:12.177Z,14
2022-12-08T03:18:13.677Z,14
2022-12-08T03:19:15.685Z,14
2022-12-08T03:20:17.717Z,14
2022-12-08T03:21:19.638Z,14
2022-12-08T03:22:21.636Z,15
2022-12-08T03:23:23.876Z,14
2022-12-08T03:24:25.757Z,14
2022-12-08T03:25:27.804Z,14
2022-12-08T03:26:30.058Z,14
2022-12-08T03:27:31.677Z,14
2022-12-08T03:28:34.119Z,14
2022-12-08T03:29:35.876Z,14
2022-12-08T03:30:37.736Z,14
2022-12-08T03:31:39.790Z,14
2022-12-08T03:32:41.935Z,14
2022-12-08T03:33:43.596Z,14
2022-12-08T03:34:44.680Z,15
2022-12-08T03:35:46.562Z,14
2022-12-08T03:36:47.581Z,15
2022-12-08T03:37:48.704Z,14
2022-12-08T03:38:51.076Z,14
2022-12-08T03:39:53.076Z,14
2022-12-08T03:40:54.761Z,14
2022-12-08T03:41:56.676Z,14
2022-12-08T03:42:58.779Z,14
2022-12-08T03:44:00.679Z,15
2022-12-08T03:45:02.665Z,15
2022-12-08T03:46:03.611Z,15
2022-12-08T03:47:04.737Z,15
2022-12-08T03:48:06.677Z,16
2022-12-08T03:49:08.799Z,15
2022-12-08T03:50:10.656Z,16
2022-12-08T03:51:12.676Z,15
2022-12-08T03:52:15.378Z,15
2022-12-08T03:53:16.636Z,15
2022-12-08T03:54:18.677Z,15
2022-12-08T03:55:19.616Z,15
2022-12-08T03:56:20.681Z,16
2022-12-08T03:57:21.629Z,15
2022-12-08T03:58:23.623Z,15
2022-12-08T03:59:25.736Z,16
2022-12-08T04:00:27.698Z,16
2022-12-08T04:01:29.712Z,16
2022-12-08T04:02:32.094Z,16
2022-12-08T04:03:33.676Z,15
2022-12-08T04:04:35.676Z,15
2022-12-08T04:05:36.623Z,15
2022-12-08T04:06:37.921Z,15
2022-12-08T04:07:39.766Z,15
2022-12-08T04:08:41.715Z,15
2022-12-08T04:09:43.740Z,16
2022-12-08T04:10:45.696Z,16
2022-12-08T04:11:47.662Z,16
2022-12-08T04:12:48.703Z,16
2022-12-08T04:13:50.656Z,15
2022-12-08T04:14:51.656Z,15
2022-12-08T04:15:52.744Z,16
2022-12-08T04:16:55.238Z,15
2022-12-08T04:17:56.764Z,15
2022-12-08T04:18:58.737Z,15
2022-12-08T04:20:00.767Z,16
2022-12-08T04:21:02.654Z,16
2022-12-08T04:22:03.638Z,17
2022-12-08T04:23:04.667Z,16
2022-12-08T04:24:06.637Z,17
2022-12-08T04:25:07.700Z,16
2022-12-08T04:26:09.717Z,16
2022-12-08T04:27:11.989Z,16
2022-12-08T04:28:13.736Z,16
2022-12-08T04:29:16.295Z,16
2022-12-08T04:30:17.699Z,16
2022-12-08T04:31:19.702Z,17
2022-12-08T04:32:21.905Z,16
2022-12-08T04:33:23.738Z,17
2022-12-08T04:34:25.758Z,17
2022-12-08T04:35:27.776Z,17
2022-12-08T04:36:29.696Z,17
2022-12-08T04:37:31.632Z,17
2022-12-08T04:38:32.676Z,18
2022-12-08T04:39:33.696Z,17
2022-12-08T04:40:34.679Z,17
2022-12-08T04:41:36.636Z,17
2022-12-08T04:42:37.704Z,17
2022-12-08T04:43:39.736Z,17
2022-12-08T04:44:41.720Z,16
2022-12-08T04:45:43.793Z,17
2022-12-08T04:46:45.766Z,16
2022-12-08T04:47:47.637Z,16
2022-12-08T04:48:48.677Z,17
2022-12-08T04:49:51.197Z,17
2022-12-08T04:50:52.677Z,17
2022-12-08T04:51:53.683Z,16
2022-12-08T04:52:54.636Z,16
2022-12-08T04:53:55.638Z,15
2022-12-08T04:54:56.777Z,16
2022-12-08T04:55:58.644Z,16
2022-12-08T04:56:59.738Z,16
2022-12-08T04:58:01.788Z,17
2022-12-08T04:59:03.632Z,19
2022-12-08T05:00:05.111Z,18
2022-12-08T05:01:06.706Z,18
2022-12-08T05:02:07.777Z,18
2022-12-08T05:03:09.745Z,18
2022-12-08T05:04:11.961Z,19
2022-12-08T05:05:13.896Z,18
2022-12-08T05:06:15.717Z,18
2022-12-08T05:07:17.757Z,18
2022-12-08T05:08:19.777Z,18
2022-12-08T05:09:21.918Z,18
2022-12-08T05:10:24.096Z,18
2022-12-08T05:11:25.845Z,18
2022-12-08T05:12:27.718Z,18
2022-12-08T05:13:29.641Z,19
2022-12-08T05:14:30.679Z,19
2022-12-08T05:15:32.597Z,18
2022-12-08T05:16:33.794Z,18
2022-12-08T05:17:35.619Z,18
2022-12-08T05:18:36.698Z,19
2022-12-08T05:19:38.735Z,18
2022-12-08T05:20:40.756Z,18
2022-12-08T05:21:42.747Z,-1
2022-12-08T05:22:44.736Z,18
2022-12-08T05:23:46.739Z,18
2022-12-08T05:24:48.937Z,18
2022-12-08T05:25:50.668Z,19
2022-12-08T05:26:52.817Z,19
2022-12-08T05:28:01.720Z,19
2022-12-08T05:28:56.766Z,20
2022-12-08T05:29:58.637Z,19
2022-12-08T05:30:59.658Z,19
2022-12-08T05:32:00.676Z,19
2022-12-08T05:33:01.620Z,19
2022-12-08T05:34:03.473Z,19
2022-12-08T05:35:03.647Z,19
2022-12-08T05:36:04.636Z,19
2022-12-08T05:37:05.684Z,20
2022-12-08T05:38:06.703Z,20
2022-12-08T05:39:08.056Z,20
2022-12-08T05:40:09.805Z,20
2022-12-08T05:41:12.016Z,20
2022-12-08T05:42:14.836Z,20
2022-12-08T05:43:17.295Z,20
2022-12-08T05:44:18.756Z,20
2022-12-08T05:45:20.656Z,20
2022-12-08T05:46:21.691Z,20
2022-12-08T05:47:22.681Z,20
2022-12-08T05:48:24.959Z,20
2022-12-08T05:49:26.796Z,20
2022-12-08T05:50:28.667Z,22
2022-12-08T05:51:30.711Z,20
2022-12-08T05:52:32.638Z,20
2022-12-08T05:53:33.720Z,20
2022-12-08T05:54:34.617Z,20
2022-12-08T05:55:35.623Z,22
2022-12-08T05:56:36.656Z,22
2022-12-08T05:57:37.716Z,22
2022-12-08T05:58:39.657Z,23
2022-12-08T05:59:41.765Z,22
2022-12-08T06:00:43.656Z,23
2022-12-08T06:01:45.881Z,23
2022-12-08T06:02:47.875Z,22
2022-12-08T06:03:49.673Z,22
2022-12-08T06:04:50.696Z,23
2022-12-08T06:05:51.676Z,23
2022-12-08T06:06:52.687Z,23
2022-12-08T06:07:53.837Z,23
2022-12-08T06:08:55.657Z,23
2022-12-08T06:09:56.696Z,24
2022-12-08T06:10:57.818Z,23
2022-12-08T06:12:00.320Z,23
2022-12-08T06:13:02.431Z,23
2022-12-08T06:14:03.738Z,23
2022-12-08T06:15:05.825Z,23
2022-12-08T06:16:08.289Z,23
2022-12-08T06:17:10.489Z,23
2022-12-08T06:18:12.529Z,22
2022-12-08T06:19:13.632Z,23
2022-12-08T06:20:14.644Z,24
2022-12-08T06:21:15.970Z,23
2022-12-08T06:22:18.282Z,23
2022-12-08T06:23:19.978Z,24
2022-12-08T06:24:21.698Z,24
2022-12-08T06:25:23.924Z,23
2022-12-08T06:26:25.699Z,24
2022-12-08T06:27:26.727Z,23
2022-12-08T06:28:27.721Z,24
2022-12-08T06:29:29.719Z,24
2022-12-08T06:30:31.014Z,24
2022-12-08T06:31:32.827Z,25
2022-12-08T06:32:35.274Z,24
2022-12-08T06:33:37.076Z,25
2022-12-08T06:34:39.636Z,25
2022-12-08T06:35:42.240Z,25
2022-12-08T06:36:44.472Z,25
2022-12-08T06:37:45.778Z,25
2022-12-08T06:38:47.716Z,26
2022-12-08T06:39:48.798Z,25
2022-12-08T06:40:51.381Z,25
2022-12-08T06:41:53.137Z,25
2022-12-08T06:42:54.818Z,25
2022-12-08T06:43:56.776Z,25
2022-12-08T06:44:58.765Z,26
2022-12-08T06:46:00.765Z,25
2022-12-08T06:47:01.719Z,26
2022-12-08T06:48:02.697Z,26
2022-12-08T06:49:03.765Z,27
2022-12-08T06:50:06.212Z,26
2022-12-08T06:51:08.205Z,27
2022-12-08T06:52:10.398Z,26
2022-12-08T06:53:12.063Z,26
2022-12-08T06:54:13.836Z,26
2022-12-08T06:55:35.264Z,26
2022-12-08T06:56:17.681Z,27
2022-12-08T06:57:18.696Z,26
2022-12-08T06:58:19.705Z,26
2022-12-08T06:59:20.717Z,27
2022-12-08T07:00:21.818Z,26
2022-12-08T07:01:24.011Z,26
2022-12-08T07:02:26.991Z,27
2022-12-08T07:03:29.107Z,26
2022-12-08T07:04:30.897Z,26
2022-12-08T07:05:32.997Z,26
2022-12-08T07:06:34.777Z,27
2022-12-08T07:07:36.807Z,26
2022-12-08T07:08:38.761Z,25
2022-12-08T07:09:40.684Z,26
2022-12-08T07:10:42.396Z,26
2022-12-08T07:11:43.797Z,26
2022-12-08T07:12:45.878Z,26
2022-12-08T07:13:47.774Z,25
2022-12-08T07:14:49.859Z,26
2022-12-08T07:15:51.839Z,26
2022-12-08T07:16:53.866Z,26
2022-12-08T07:17:59.708Z,26
2022-12-08T07:18:57.697Z,26
2022-12-08T07:19:59.343Z,27
2022-12-08T07:21:01.485Z,27
2022-12-08T07:22:02.857Z,27
2022-12-08T07:23:04.859Z,27
2022-12-08T07:24:07.873Z,27
2022-12-08T07:25:09.777Z,27
2022-12-08T07:26:12.066Z,27
2022-12-08T07:27:13.775Z,26
2022-12-08T07:28:15.745Z,27
2022-12-08T07:29:21.690Z,27
2022-12-08T07:30:19.761Z,28
2022-12-08T07:31:22.295Z,27
2022-12-08T07:32:23.732Z,28
2022-12-08T07:33:25.877Z,28
2022-12-08T07:34:28.457Z,28
2022-12-08T07:35:30.167Z,28
2022-12-08T07:36:32.512Z,27
2022-12-08T07:37:33.797Z,27
2022-12-08T07:38:34.726Z,28
2022-12-08T07:39:35.939Z,27
2022-12-08T07:40:37.777Z,27
2022-12-08T07:41:39.783Z,27
2022-12-08T07:42:41.737Z,26
2022-12-08T07:43:43.180Z,27
2022-12-08T07:44:45.457Z,27
2022-12-08T07:45:47.114Z,27
2022-12-08T07:46:48.810Z,27
2022-12-08T07:47:50.754Z,26
2022-12-08T07:48:52.582Z,27
2022-12-08T07:49:53.859Z,27
2022-12-08T07:50:55.766Z,27
2022-12-08T07:51:57.738Z,28
2022-12-08T07:52:59.085Z,27
2022-12-08T07:54:00.817Z,28
2022-12-08T07:55:03.236Z,27
2022-12-08T07:56:04.797Z,27
2022-12-08T07:57:06.778Z,27
2022-12-08T07:58:08.536Z,27
2022-12-08T07:59:10.846Z,27
2022-12-08T08:00:12.764Z,28
2022-12-08T08:01:13.857Z,28
2022-12-08T08:02:23.913Z,28
2022-12-08T08:03:17.311Z,28
2022-12-08T08:04:18.823Z,28
2022-12-08T08:05:19.818Z,28
2022-12-08T08:06:22.118Z,29
2022-12-08T08:07:23.805Z,28
2022-12-08T08:08:25.907Z,28
2022-12-08T08:09:27.817Z,27
2022-12-08T08:10:29.740Z,28
2022-12-08T08:11:30.759Z,28
2022-12-08T08:12:32.988Z,28
2022-12-08T08:13:33.857Z,28
2022-12-08T08:14:37.006Z,28
2022-12-08T08:15:40.391Z,28
2022-12-08T08:16:41.870Z,27
2022-12-08T08:17:44.257Z,27
2022-12-08T08:18:45.966Z,28
2022-12-08T08:19:48.637Z,28
2022-12-08T08:20:50.057Z,28
2022-12-08T08:21:51.817Z,27
2022-12-08T08:22:53.780Z,27
2022-12-08T08:23:55.888Z,27
2022-12-08T08:24:57.756Z,27
2022-12-08T08:25:58.779Z,27
2022-12-08T08:27:00.737Z,27
2022-12-08T08:28:01.978Z,26
2022-12-08T08:29:04.446Z,26
2022-12-08T08:30:06.032Z,26
2022-12-08T08:31:08.244Z,26
2022-12-08T08:32:09.806Z,25
2022-12-08T08:33:11.266Z,26
2022-12-08T08:34:12.825Z,25
2022-12-08T08:35:14.837Z,24
2022-12-08T08:36:16.839Z,25
2022-12-08T08:37:18.831Z,25
2022-12-08T08:38:19.845Z,25
2022-12-08T08:39:21.746Z,26
2022-12-08T08:40:22.823Z,25
2022-12-08T08:41:24.781Z,25
2022-12-08T08:42:26.837Z,25
2022-12-08T08:43:32.884Z,25
2022-12-08T08:44:30.785Z,25
2022-12-08T08:45:31.798Z,24
2022-12-08T08:46:33.259Z,23
2022-12-08T08:47:34.759Z,23
2022-12-08T08:48:36.018Z,22
2022-12-08T08:49:38.107Z,25
2022-12-08T08:50:39.799Z,23
2022-12-08T08:51:40.797Z,22
2022-12-08T08:52:41.966Z,22
2022-12-08T08:53:43.784Z,22
2022-12-08T08:54:44.738Z,22
2022-12-08T08:55:45.977Z,22
2022-12-08T08:56:48.339Z,22
2022-12-08T08:57:49.759Z,22
2022-12-08T08:58:51.738Z,22
2022-12-08T08:59:52.822Z,22
2022-12-08T09:00:54.720Z,20
2022-12-08T09:01:55.949Z,21
2022-12-08T09:02:57.758Z,20
2022-12-08T09:03:58.831Z,20
2022-12-08T09:05:01.047Z,20
2022-12-08T09:06:03.151Z,20
2022-12-08T09:07:04.845Z,20
2022-12-08T09:08:07.701Z,20
2022-12-08T09:09:08.887Z,18
2022-12-08T09:10:11.762Z,19
2022-12-08T09:11:13.241Z,20
2022-12-08T09:12:14.818Z,19
2022-12-08T09:13:16.858Z,20
2022-12-08T09:14:18.824Z,20
2022-12-08T09:15:20.815Z,19
2022-12-08T09:16:23.202Z,19
2022-12-08T09:17:24.777Z,19
2022-12-08T09:18:25.809Z,18
2022-12-08T09:19:26.839Z,19
2022-12-08T09:20:29.014Z,18
2022-12-08T09:21:30.817Z,17
2022-12-08T09:22:32.523Z,17
2022-12-08T09:23:35.689Z,16
2022-12-08T09:24:36.997Z,17
2022-12-08T09:25:38.799Z,17
2022-12-08T09:26:39.786Z,16
2022-12-08T09:27:40.776Z,16
2022-12-08T09:28:41.898Z,16
2022-12-08T09:29:43.887Z,16
2022-12-08T09:30:45.818Z,16
2022-12-08T09:31:48.498Z,16
2022-12-08T09:32:49.905Z,17
2022-12-08T09:33:52.121Z,17
2022-12-08T09:34:54.092Z,17
2022-12-08T09:35:56.564Z,17
2022-12-08T09:36:57.777Z,17
2022-12-08T09:37:58.779Z,17
2022-12-08T09:38:59.777Z,16
2022-12-08T09:40:00.842Z,16
2022-12-08T09:41:03.129Z,16
2022-12-08T09:42:06.197Z,15
2022-12-08T09:43:08.402Z,17
2022-12-08T09:44:09.848Z,16
2022-12-08T09:45:11.858Z,16
2022-12-08T09:46:13.662Z,15
2022-12-08T09:47:14.817Z,16
2022-12-08T09:48:15.841Z,16
2022-12-08T09:49:17.910Z,15
2022-12-08T09:50:20.038Z,15
2022-12-08T09:51:21.949Z,16
2022-12-08T09:52:23.868Z,16
2022-12-08T09:53:28.303Z,16
2022-12-08T09:54:28.180Z,16
2022-12-08T09:55:29.816Z,16
2022-12-08T09:56:31.962Z,16
2022-12-08T09:57:33.840Z,16
2022-12-08T09:58:35.737Z,16
2022-12-08T09:59:36.845Z,16
2022-12-08T10:00:38.940Z,16
2022-12-08T10:01:40.807Z,16
2022-12-08T10:02:42.838Z,-1
2022-12-08T10:03:44.780Z,16
2022-12-08T10:04:46.102Z,16
2022-12-08T10:05:47.918Z,16
2022-12-08T10:06:49.800Z,16
2022-12-08T10:07:50.932Z,16
2022-12-08T10:08:53.205Z,17
2022-12-08T10:09:54.907Z,17
2022-12-08T10:10:56.923Z,17
2022-12-08T10:11:58.839Z,16
2022-12-08T10:13:01.559Z,16
2022-12-08T10:14:03.025Z,17
2022-12-08T10:15:04.861Z,16
2022-12-08T10:16:07.524Z,16
2022-12-08T10:17:08.912Z,17
2022-12-08T10:18:10.882Z,17
2022-12-08T10:19:13.502Z,16
2022-12-08T10:20:15.220Z,17
2022-12-08T10:21:16.944Z,17
2022-12-08T10:22:18.981Z,16
2022-12-08T10:23:20.945Z,16
2022-12-08T10:24:23.638Z,17
2022-12-08T10:25:24.824Z,18
2022-12-08T10:26:26.898Z,17
2022-12-08T10:27:28.977Z,17
2022-12-08T10:28:30.942Z,17
2022-12-08T10:29:33.130Z,17
2022-12-08T10:30:34.798Z,17
2022-12-08T10:31:35.903Z,17
2022-12-08T10:32:37.320Z,17
2022-12-08T10:33:39.187Z,17
2022-12-08T10:34:40.998Z,17
2022-12-08T10:35:42.957Z,17
2022-12-08T10:36:44.919Z,16
2022-12-08T10:37:47.270Z,17
2022-12-08T10:38:48.823Z,17
2022-12-08T10:39:50.438Z,17
2022-12-08T10:40:51.859Z,17
2022-12-08T10:41:53.857Z,17
2022-12-08T10:42:55.636Z,16
2022-12-08T10:43:57.594Z,16
2022-12-08T10:44:58.941Z,16
2022-12-08T10:46:01.116Z,16
2022-12-08T10:47:02.949Z,16
2022-12-08T10:48:05.048Z,17
2022-12-08T10:49:06.904Z,17
2022-12-08T10:50:08.958Z,18
2022-12-08T10:51:10.898Z,17
2022-12-08T10:52:13.636Z,17
2022-12-08T10:53:15.364Z,16
2022-12-08T10:54:21.836Z,16
2022-12-08T10:55:18.805Z,16
2022-12-08T10:56:19.877Z,16
2022-12-08T10:57:21.856Z,16
2022-12-08T10:58:23.873Z,16
2022-12-08T10:59:26.158Z,15
2022-12-08T11:00:28.194Z,15
2022-12-08T11:01:29.943Z,16
2022-12-08T11:02:31.820Z,15
2022-12-08T11:03:32.862Z,15
2022-12-08T11:04:34.877Z,15
2022-12-08T11:05:36.880Z,15
2022-12-08T11:06:38.874Z,15
2022-12-08T11:07:41.011Z,15
2022-12-08T11:08:43.018Z,16
2022-12-08T11:09:44.877Z,15
2022-12-08T11:10:46.820Z,14
2022-12-08T11:11:48.884Z,14
2022-12-08T11:12:50.876Z,15
2022-12-08T11:13:53.558Z,15
2022-12-08T11:14:54.847Z,15
2022-12-08T11:15:57.042Z,15
2022-12-08T11:16:59.040Z,15
2022-12-08T11:18:00.837Z,15
2022-12-08T11:19:01.937Z,14
2022-12-08T11:20:04.474Z,14
2022-12-08T11:21:06.455Z,13
2022-12-08T11:22:08.357Z,13
2022-12-08T11:23:09.879Z,13
2022-12-08T11:24:12.043Z,13
2022-12-08T11:25:13.978Z,13
2022-12-08T11:26:16.358Z,14
2022-12-08T11:27:18.058Z,13
2022-12-08T11:28:20.139Z,14
2022-12-08T11:29:21.836Z,15
2022-12-08T11:30:22.865Z,15
2022-12-08T11:31:23.921Z,14
2022-12-08T11:32:26.036Z,14
2022-12-08T11:33:28.237Z,14
2022-12-08T11:34:29.998Z,14
2022-12-08T11:35:32.357Z,14
2022-12-08T11:36:33.925Z,15
2022-12-08T11:37:35.936Z,16
2022-12-08T11:38:37.937Z,16
2022-12-08T11:39:39.881Z,15
2022-12-08T11:40:42.577Z,16
2022-12-08T11:41:44.997Z,17
2022-12-08T11:42:47.418Z,16
2022-12-08T11:43:49.100Z,16
2022-12-08T11:44:50.904Z,16
2022-12-08T11:45:53.236Z,16
2022-12-08T11:46:54.898Z,15
2022-12-08T11:47:56.928Z,16
2022-12-08T11:49:02.702Z,17
2022-12-08T11:50:01.872Z,15
2022-12-08T11:51:03.378Z,15
2022-12-08T11:52:04.917Z,16
2022-12-08T11:53:06.888Z,17
2022-12-08T11:54:08.884Z,16
2022-12-08T11:55:10.958Z,17
2022-12-08T11:56:13.416Z,17
2022-12-08T11:57:15.501Z,17
2022-12-08T11:58:17.283Z,17
2022-12-08T11:59:18.830Z,17
2022-12-08T12:00:19.956Z,17
2022-12-08T12:01:21.997Z,17
2022-12-08T12:02:24.813Z,17
2022-12-08T12:03:26.034Z,17
2022-12-08T12:04:27.956Z,17
2022-12-08T12:05:40.082Z,18
2022-12-08T12:06:54.073Z,17
2022-12-08T12:07:33.878Z,17
2022-12-08T12:08:34.946Z,18
2022-12-08T12:09:36.879Z,18
2022-12-08T12:10:38.982Z,18
2022-12-08T12:11:40.893Z,18
2022-12-08T12:12:42.944Z,18
2022-12-08T12:13:44.820Z,18
2022-12-08T12:14:46.697Z,17
2022-12-08T12:15:48.060Z,17
2022-12-08T12:16:50.065Z,16
2022-12-08T12:17:52.239Z,16
2022-12-08T12:18:54.265Z,18
2022-12-08T12:19:56.035Z,17
2022-12-08T12:20:58.017Z,16
2022-12-08T12:22:00.398Z,15
2022-12-08T12:23:01.837Z,14
2022-12-08T12:24:04.028Z,16
2022-12-08T12:25:06.282Z,16
2022-12-08T12:26:08.129Z,16
2022-12-08T12:27:09.919Z,15
2022-12-08T12:28:11.958Z,16
2022-12-08T12:29:14.167Z,16
2022-12-08T12:30:15.941Z,16
2022-12-08T12:31:18.027Z,16
2022-12-08T12:32:19.918Z,15
2022-12-08T12:33:22.021Z,16
2022-12-08T12:34:24.839Z,16
2022-12-08T12:35:27.415Z,17
2022-12-08T12:36:28.518Z,17
2022-12-08T12:37:30.025Z,17
2022-12-08T12:38:31.959Z,17
2022-12-08T12:39:33.886Z,17
2022-12-08T12:40:35.136Z,16
2022-12-08T12:41:37.103Z,16
2022-12-08T12:42:38.901Z,16
2022-12-08T12:43:41.339Z,17
2022-12-08T12:44:43.029Z,17
2022-12-08T12:45:45.300Z,17
2022-12-08T12:46:47.018Z,16
2022-12-08T12:47:54.233Z,16
2022-12-08T12:48:51.483Z,16
2022-12-08T12:49:52.916Z,17
2022-12-08T12:50:54.897Z,18
2022-12-08T12:51:55.835Z,17
2022-12-08T12:52:56.877Z,17
2022-12-08T12:53:58.256Z,17
2022-12-08T12:55:00.063Z,17
2022-12-08T12:56:01.942Z,17
2022-12-08T12:57:03.902Z,18
2022-12-08T12:58:05.287Z,17
2022-12-08T12:59:07.097Z,18
2022-12-08T13:00:09.146Z,17
2022-12-08T13:01:11.148Z,16
2022-12-08T13:02:13.581Z,17
2022-12-08T13:03:15.557Z,17
2022-12-08T13:04:17.358Z,16
2022-12-08T13:05:19.456Z,17
2022-12-08T13:06:21.343Z,17
2022-12-08T13:07:23.417Z,18
2022-12-08T13:08:25.111Z,18
2022-12-08T13:09:27.057Z,18
2022-12-08T13:10:29.118Z,18
2022-12-08T13:11:31.038Z,17
2022-12-08T13:12:33.650Z,17
2022-12-08T13:13:35.916Z,17
2022-12-08T13:14:38.057Z,18
2022-12-08T13:15:39.918Z,18
2022-12-08T13:16:41.972Z,18
2022-12-08T13:17:44.002Z,18
2022-12-08T13:18:47.401Z,18
2022-12-08T13:19:51.843Z,18
2022-12-08T13:20:51.145Z,18
2022-12-08T13:21:53.077Z,18
2022-12-08T13:22:55.483Z,19
2022-12-08T13:23:57.036Z,19
2022-12-08T13:24:59.097Z,18
2022-12-08T13:26:00.939Z,19
2022-12-08T13:27:03.444Z,19
2022-12-08T13:28:05.335Z,19
2022-12-08T13:29:08.137Z,19
2022-12-08T13:30:10.242Z,19
2022-12-08T13:31:12.108Z,19
2022-12-08T13:32:14.537Z,19
2022-12-08T13:33:18.637Z,19
2022-12-08T13:34:17.992Z,20
2022-12-08T13:35:20.036Z,18
2022-12-08T13:36:21.957Z,18
2022-12-08T13:37:24.179Z,18
2022-12-08T13:38:25.961Z,18
2022-12-08T13:39:28.037Z,17
2022-12-08T13:40:30.017Z,17
2022-12-08T13:41:31.998Z,18
2022-12-08T13:42:34.246Z,18
2022-12-08T13:43:45.027Z,18
2022-12-08T13:45:18.398Z,17
2022-12-08T13:46:26.477Z,18
2022-12-08T13:47:09.654Z,18
2022-12-08T13:48:06.196Z,17
2022-12-08T13:53:34.332Z,17
2022-12-08T13:54:48.746Z,17
2022-12-08T13:57:08.796Z,16
2022-12-08T13:58:04.050Z,17
2022-12-08T13:59:06.090Z,16
2022-12-08T14:00:08.116Z,17
2022-12-08T14:01:10.209Z,17
2022-12-08T14:02:12.083Z,16
2022-12-08T14:03:14.857Z,16
2022-12-08T14:04:42.400Z,17
2022-12-08T14:05:19.753Z,17
2022-12-08T14:06:20.629Z,17
2022-12-08T14:07:21.978Z,17
2022-12-08T14:08:50.643Z,17
2022-12-08T14:09:25.077Z,16
2022-12-08T14:10:27.225Z,16
2022-12-08T14:11:28.970Z,17
2022-12-08T14:12:30.916Z,18
2022-12-08T14:13:31.968Z,18
2022-12-08T14:15:01.044Z,18
2022-12-08T14:15:38.483Z,18
2022-12-08T14:16:37.977Z,18
2022-12-08T14:17:40.064Z,18
2022-12-08T14:18:42.040Z,18
2022-12-08T14:19:44.179Z,19
2022-12-08T14:21:19.178Z,20
2022-12-08T14:21:48.077Z,19
2022-12-08T14:22:50.136Z,19
2022-12-08T14:23:51.942Z,19
2022-12-08T14:24:53.059Z,19
2022-12-08T14:25:55.437Z,19
2022-12-08T14:26:57.778Z,19
2022-12-08T14:27:59.359Z,22
2022-12-08T14:29:01.107Z,20
2022-12-08T14:30:03.297Z,19
2022-12-08T14:31:05.061Z,20
2022-12-08T14:32:06.910Z,20
2022-12-08T14:33:08.042Z,21
2022-12-08T14:34:11.885Z,20
2022-12-08T14:35:14.579Z,19
2022-12-08T14:36:16.098Z,20
2022-12-08T14:37:18.378Z,20
2022-12-08T14:38:20.271Z,19
2022-12-08T14:39:22.021Z,19
2022-12-08T14:40:24.524Z,22
2022-12-08T14:41:25.978Z,18
2022-12-08T14:42:28.285Z,18
2022-12-08T14:43:30.224Z,20
2022-12-08T14:44:34.077Z,19
2022-12-08T14:45:37.861Z,19
2022-12-08T14:46:39.466Z,20
2022-12-08T14:47:41.022Z,20
2022-12-08T14:48:43.097Z,19
2022-12-08T14:49:45.609Z,19
2022-12-08T14:50:47.074Z,19